Archival Weather

NSFA McMurdo Sound

NSFA McMurdo Sound, Antarctica (NZCM)

Report from: Friday, September 23, 2022 10:55 AM UTC
Current time: Sunday, December 4, 2022 11:48 AM UTC

Current weather
Weather history
Weather forecast

Present weatherHaze
Temperature-21.7°C (-7.1°F)
Wind chill-35.6°C (-32.1°F)
Dew point-25.8°C (-14.4°F)
Winds 19 kts (9.8 m/s, 21.9 mph) East-Northeast (70°)
Wind gusts 26 kts (13.4 m/s, 29.9 mph)
Peak wind 33 kts (17 m/s, 38 mph) East-Northeast (60°) at 05:14
Visibility2.5 mi. (4.1 km)
Clouds Ceiling: Overcast 1,400 ft. (427 m)
Altimeter28.65 in.Hg (970 mB)
Precip. events Snow began 10:51 AM
Snow ended 10:52 AM
Relative humidity69 %
Density altitude-3,178 ft. (-969 m)
Sea-level pressure107.1 kPa (1071 mB, 31.62 in.Hg)
Remarks Fully automated report
System requires maintenance
Automated weather observing station with precipitation discriminator
Flight conditions Instrument Meteorological Conditions
Raw dataNZCM 231055Z AUTO 07019G26KT 4100 HZ OVC014 M22/M26 A2865 RMK AO2 PK WND 06033/1014 SNB1051E1052 SLP707 T12171258 $
An error has occurred. This application may no longer respond until reloaded. Reload 🗙